createdAt,value
2023-04-11T00:00:20.460Z,100130.78
2023-04-11T00:02:47.504Z,100131.63
2023-04-11T00:05:14.512Z,100129.94
2023-04-11T00:07:41.360Z,100127.22
2023-04-11T00:10:08.589Z,100126.41
2023-04-11T00:12:35.693Z,100120.19
2023-04-11T00:15:02.635Z,100121.22
2023-04-11T00:17:31.564Z,100125.41
2023-04-11T00:20:01.808Z,100123.75
2023-04-11T00:22:29.063Z,100114.13
2023-04-11T00:24:55.918Z,100114.16
2023-04-11T00:27:22.823Z,100101.16
2023-04-11T00:29:49.800Z,100102.03
2023-04-11T00:32:16.695Z,100095.78
2023-04-11T00:34:43.539Z,100088.97
2023-04-11T00:37:10.632Z,100086.44
2023-04-11T00:39:38.465Z,100087.13
2023-04-11T00:42:06.834Z,100085.28
2023-04-11T00:44:34.077Z,100079.06
2023-04-11T00:47:02.348Z,100070.91
2023-04-11T00:49:30.333Z,100069.44
2023-04-11T00:51:57.276Z,100059.00
2023-04-11T00:54:29.315Z,100060.75
2023-04-11T00:56:58.081Z,100044.41
2023-04-11T00:59:25.841Z,100047.91
2023-04-11T01:01:52.901Z,100035.56
2023-04-11T01:04:21.380Z,100029.44
2023-04-11T01:06:52.923Z,100025.25
2023-04-11T01:09:24.633Z,100026.91
2023-04-11T01:11:52.023Z,100039.97
2023-04-11T01:14:19.335Z,100033.13
2023-04-11T01:16:50.866Z,100014.63
2023-04-11T01:19:21.248Z,100005.97
2023-04-11T01:21:49.022Z,100010.31
2023-04-11T01:24:16.221Z,100011.81
2023-04-11T01:26:43.341Z,100010.81
2023-04-11T01:29:10.474Z,99997.00
2023-04-11T01:31:38.485Z,100006.38
2023-04-11T01:34:05.778Z,100001.09
2023-04-11T01:36:32.834Z,99989.13
2023-04-11T01:38:59.776Z,99987.31
2023-04-11T01:41:27.776Z,99975.88
2023-04-11T01:43:54.750Z,99983.97
2023-04-11T01:46:21.931Z,99974.28
2023-04-11T01:48:50.653Z,99966.63
2023-04-11T01:51:17.600Z,99961.41
2023-04-11T01:53:47.447Z,99962.91
2023-04-11T01:56:15.025Z,99948.94
2023-04-11T01:58:42.174Z,99943.91
2023-04-11T02:01:09.165Z,99931.66
2023-04-11T02:03:37.176Z,99917.47
2023-04-11T02:06:04.382Z,99936.09
2023-04-11T02:08:31.414Z,99931.72
2023-04-11T02:10:58.494Z,99939.28
2023-04-11T02:13:25.449Z,99929.72
2023-04-11T02:15:52.370Z,99930.59
2023-04-11T02:18:19.305Z,99919.94
2023-04-11T02:20:46.237Z,99938.16
2023-04-11T02:23:14.452Z,99925.94
2023-04-11T02:25:41.341Z,99926.66
2023-04-11T02:28:08.416Z,99913.75
2023-04-11T02:30:35.463Z,99895.50
2023-04-11T02:33:03.286Z,99891.06
2023-04-11T02:35:30.272Z,99880.78
2023-04-11T02:38:00.758Z,99872.19
2023-04-11T02:40:27.691Z,99857.31
2023-04-11T02:42:54.558Z,99847.59
2023-04-11T02:45:21.928Z,99837.34
2023-04-11T02:47:48.906Z,99832.78
2023-04-11T02:50:16.664Z,99826.59
2023-04-11T02:52:49.515Z,99824.03
2023-04-11T02:55:23.328Z,99825.63
2023-04-11T02:57:51.426Z,99816.75
2023-04-11T03:00:20.596Z,99812.38
2023-04-11T03:02:52.607Z,99815.00
2023-04-11T03:05:22.753Z,99815.63
2023-04-11T03:07:52.771Z,99812.22
2023-04-11T03:10:20.055Z,99811.25
2023-04-11T03:12:46.939Z,99819.06
2023-04-11T03:15:15.667Z,99812.06
2023-04-11T03:17:42.809Z,99806.66
2023-04-11T03:20:13.928Z,99810.88
2023-04-11T03:22:46.856Z,99811.75
2023-04-11T03:25:14.604Z,99814.56
2023-04-11T03:27:42.990Z,99804.25
2023-04-11T03:30:11.618Z,99799.16
2023-04-11T03:32:42.259Z,99805.09
2023-04-11T03:35:09.737Z,99803.31
2023-04-11T03:37:40.647Z,99809.53
2023-04-11T03:40:08.628Z,99807.59
2023-04-11T03:42:38.266Z,99822.25
2023-04-11T03:45:07.671Z,99813.22
2023-04-11T03:47:35.368Z,99804.75
2023-04-11T03:50:04.086Z,99797.16
2023-04-11T03:52:37.861Z,99801.38
2023-04-11T03:55:10.221Z,99802.13
2023-04-11T03:57:37.103Z,99796.13
2023-04-11T04:00:07.829Z,99800.38
2023-04-11T04:02:42.300Z,99805.50
2023-04-11T04:05:13.690Z,99800.22
2023-04-11T04:07:42.705Z,99808.84
2023-04-11T04:10:23.137Z,99803.72
2023-04-11T04:12:53.236Z,99807.63
2023-04-11T04:15:23.602Z,99805.25
2023-04-11T04:17:53.818Z,99816.06
2023-04-11T04:20:41.440Z,99795.50
2023-04-11T04:23:08.854Z,99796.75
2023-04-11T04:25:50.059Z,99791.69
2023-04-11T04:28:22.630Z,99786.31
2023-04-11T04:30:54.401Z,99776.09
2023-04-11T04:33:25.281Z,99777.56
2023-04-11T04:36:00.239Z,99769.28
2023-04-11T04:38:31.070Z,99768.34
2023-04-11T04:40:59.476Z,99771.03
2023-04-11T04:43:32.408Z,99771.09
2023-04-11T04:46:08.873Z,99763.44
2023-04-11T04:48:43.372Z,99759.72
2023-04-11T04:51:10.508Z,99750.09
2023-04-11T04:53:39.037Z,99744.88
2023-04-11T04:56:08.408Z,99731.94
2023-04-11T04:58:41.194Z,99733.47
2023-04-11T05:01:11.980Z,99734.50
2023-04-11T05:03:39.313Z,99729.91
2023-04-11T05:06:11.581Z,99735.22
2023-04-11T05:08:39.812Z,99724.78
2023-04-11T05:11:09.820Z,99726.28
2023-04-11T05:13:37.992Z,99721.94
2023-04-11T05:16:05.958Z,99708.97
2023-04-11T05:18:32.905Z,99704.69
2023-04-11T05:21:00.425Z,99695.09
2023-04-11T05:23:33.603Z,99695.75
2023-04-11T05:26:02.503Z,99683.72
2023-04-11T05:28:31.910Z,99666.25
2023-04-11T05:30:59.746Z,99671.50
2023-04-11T05:33:26.866Z,99664.56
2023-04-11T05:35:54.354Z,99674.06
2023-04-11T05:38:21.232Z,99664.41
2023-04-11T05:40:48.127Z,99651.47
2023-04-11T05:43:15.344Z,99675.09
2023-04-11T05:45:42.828Z,99660.94
2023-04-11T05:48:09.927Z,99660.75
2023-04-11T05:50:36.963Z,99659.19
2023-04-11T05:53:03.914Z,99646.88
2023-04-11T05:55:31.544Z,99654.00
2023-04-11T05:57:58.467Z,99638.06
2023-04-11T06:00:26.299Z,99652.00
2023-04-11T06:02:53.303Z,99649.50
2023-04-11T06:05:21.340Z,99655.63
2023-04-11T06:07:48.357Z,99647.84
2023-04-11T06:10:15.607Z,99664.09
2023-04-11T06:12:42.558Z,99660.78
2023-04-11T06:15:09.756Z,99652.81
2023-04-11T06:17:36.683Z,99653.41
2023-04-11T06:20:06.244Z,99639.50
2023-04-11T06:22:33.280Z,99642.91
2023-04-11T06:25:00.165Z,99654.03
2023-04-11T06:27:27.110Z,99644.81
2023-04-11T06:29:54.042Z,99642.16
2023-04-11T06:32:22.025Z,99641.06
2023-04-11T06:34:49.032Z,99641.22
2023-04-11T06:37:15.831Z,99640.47
2023-04-11T06:39:42.711Z,99636.09
2023-04-11T06:42:09.581Z,99622.19
2023-04-11T06:44:36.703Z,99630.84
2023-04-11T06:47:03.835Z,99625.66
2023-04-11T06:49:31.426Z,99635.97
2023-04-11T06:51:59.564Z,99618.69
2023-04-11T06:54:26.410Z,99610.50
2023-04-11T06:56:53.307Z,99614.84
2023-04-11T06:59:20.712Z,99608.72
2023-04-11T07:01:47.892Z,99600.38
2023-04-11T07:04:14.983Z,99603.06
2023-04-11T07:06:41.954Z,99592.56
2023-04-11T07:09:15.112Z,99589.03
2023-04-11T07:11:41.995Z,99590.69
2023-04-11T07:14:08.821Z,99594.06
2023-04-11T07:16:35.794Z,99589.81
2023-04-11T07:19:03.499Z,99598.34
2023-04-11T07:21:32.469Z,99597.25
2023-04-11T07:24:00.940Z,99574.72
2023-04-11T07:26:32.338Z,99593.06
2023-04-11T07:28:59.877Z,99582.25
2023-04-11T07:31:27.527Z,99579.63
2023-04-11T07:33:54.926Z,99568.69
2023-04-11T07:36:22.077Z,99577.25
2023-04-11T07:38:48.949Z,99590.84
2023-04-11T07:41:16.501Z,99556.91
2023-04-11T07:43:43.593Z,99584.88
2023-04-11T07:46:12.473Z,99567.44
2023-04-11T07:48:39.521Z,99552.56
2023-04-11T07:51:06.484Z,99564.22
2023-04-11T07:53:33.774Z,99539.56
2023-04-11T07:56:00.855Z,99550.31
2023-04-11T07:58:28.663Z,99552.00
2023-04-11T08:00:55.582Z,99534.63
2023-04-11T08:03:23.780Z,99525.03
2023-04-11T08:05:51.040Z,99524.06
2023-04-11T08:08:17.932Z,99509.16
2023-04-11T08:10:44.909Z,99515.31
2023-04-11T08:13:11.812Z,99503.06
2023-04-11T08:15:39.137Z,99503.88
2023-04-11T08:18:06.116Z,99502.84
2023-04-11T08:20:33.067Z,99493.16
2023-04-11T08:23:00.660Z,99503.53
2023-04-11T08:25:27.531Z,99510.16
2023-04-11T08:27:54.463Z,99493.66
2023-04-11T08:30:21.489Z,99497.41
2023-04-11T08:32:48.581Z,99494.53
2023-04-11T08:35:15.524Z,99489.38
2023-04-11T08:37:44.460Z,99486.44
2023-04-11T08:40:11.794Z,99492.50
2023-04-11T08:42:38.658Z,99476.38
2023-04-11T08:45:08.714Z,99485.19
2023-04-11T08:47:36.793Z,99483.22
2023-04-11T08:50:04.434Z,99473.69
2023-04-11T08:52:31.748Z,99475.13
2023-04-11T08:54:58.702Z,99473.44
2023-04-11T08:57:26.639Z,99467.97
2023-04-11T08:59:57.304Z,99460.19
2023-04-11T09:02:24.360Z,99465.81
2023-04-11T09:04:51.808Z,99456.50
2023-04-11T09:07:19.328Z,99454.22
2023-04-11T09:09:46.578Z,99446.28
2023-04-11T09:12:13.613Z,99461.94
2023-04-11T09:14:40.798Z,99447.50
2023-04-11T09:17:14.488Z,99439.03
2023-04-11T09:19:46.273Z,99430.03
2023-04-11T09:22:15.870Z,99427.47
2023-04-11T09:24:43.092Z,99430.19
2023-04-11T09:27:10.080Z,99419.66
2023-04-11T09:29:40.837Z,99425.84
2023-04-11T09:32:08.040Z,99412.06
2023-04-11T09:34:37.796Z,99411.84
2023-04-11T09:37:05.012Z,99400.44
2023-04-11T09:39:32.838Z,99386.28
2023-04-11T09:41:59.753Z,99392.00
2023-04-11T09:44:37.567Z,99389.09
2023-04-11T09:47:04.701Z,99378.22
2023-04-11T09:49:33.111Z,99378.22
2023-04-11T09:52:01.092Z,99372.75
2023-04-11T09:54:28.894Z,99368.28
2023-04-11T09:56:57.260Z,99362.59
2023-04-11T09:59:26.406Z,99359.22
2023-04-11T10:01:53.465Z,99343.53
2023-04-11T10:04:20.731Z,99350.28
2023-04-11T10:07:03.870Z,99335.47
2023-04-11T10:09:31.530Z,99329.25
2023-04-11T10:11:58.518Z,99325.78
2023-04-11T10:14:37.809Z,99325.19
2023-04-11T10:17:17.720Z,99317.69
2023-04-11T10:19:48.265Z,99313.53
2023-04-11T10:22:33.548Z,99314.38
2023-04-11T10:25:19.494Z,99309.03
2023-04-11T10:28:06.276Z,99288.09
2023-04-11T10:30:42.111Z,99299.31
2023-04-11T10:33:17.538Z,99305.22
2023-04-11T10:35:59.766Z,99293.03
2023-04-11T10:38:43.425Z,99274.94
2023-04-11T10:41:17.682Z,99294.03
2023-04-11T10:43:45.355Z,99282.47
2023-04-11T10:46:25.468Z,99286.63
2023-04-11T10:49:05.324Z,99273.53
2023-04-11T10:51:33.603Z,99266.53
2023-04-11T10:54:01.523Z,99265.13
2023-04-11T10:56:46.932Z,99274.75
2023-04-11T10:59:37.051Z,99275.88
2023-04-11T11:02:04.028Z,99268.53
2023-04-11T11:04:32.433Z,99278.59
2023-04-11T11:07:00.018Z,99275.00
2023-04-11T11:09:29.036Z,99267.72
2023-04-11T11:12:06.639Z,99277.31
2023-04-11T11:14:33.565Z,99276.09
2023-04-11T11:17:00.961Z,99262.34
2023-04-11T11:19:28.061Z,99255.28
2023-04-11T11:21:55.210Z,99260.22
2023-04-11T11:24:25.569Z,99255.44
2023-04-11T11:26:53.771Z,99249.81
2023-04-11T11:29:39.842Z,99252.84
2023-04-11T11:32:07.220Z,99245.72
2023-04-11T11:34:34.875Z,99250.44
2023-04-11T11:37:04.907Z,99244.09
2023-04-11T11:39:32.310Z,99242.00
2023-04-11T11:41:59.420Z,99235.63
2023-04-11T11:44:27.664Z,99232.78
2023-04-11T11:47:21.024Z,99209.69
2023-04-11T11:49:49.118Z,99233.06
2023-04-11T11:52:34.974Z,99224.81
2023-04-11T11:55:08.085Z,99214.81
2023-04-11T11:57:37.422Z,99233.00
2023-04-11T12:00:10.373Z,99218.00
2023-04-11T12:02:38.803Z,99231.06
2023-04-11T12:05:07.026Z,99214.75
2023-04-11T12:07:36.903Z,99200.53
2023-04-11T12:10:08.264Z,99201.22
2023-04-11T12:12:38.669Z,99214.06
2023-04-11T12:15:16.840Z,99213.50
2023-04-11T12:17:44.148Z,99201.53
2023-04-11T12:20:11.361Z,99207.44
2023-04-11T12:22:38.514Z,99202.06
2023-04-11T12:25:09.918Z,99191.06
2023-04-11T12:27:37.527Z,99172.47
2023-04-11T12:30:04.917Z,99181.88
2023-04-11T12:32:34.152Z,99167.59
2023-04-11T12:35:01.410Z,99168.50
2023-04-11T12:37:28.317Z,99169.63
2023-04-11T12:39:55.202Z,99183.59
2023-04-11T12:42:26.749Z,99185.47
2023-04-11T12:44:54.476Z,99180.44
2023-04-11T12:47:21.502Z,99174.66
2023-04-11T12:49:48.441Z,99184.75
2023-04-11T12:52:15.770Z,99182.00
2023-04-11T12:54:42.820Z,99170.78
2023-04-11T12:57:09.842Z,99165.84
2023-04-11T12:59:36.786Z,99160.38
2023-04-11T13:02:03.944Z,99154.69
2023-04-11T13:04:31.340Z,99163.75
2023-04-11T13:07:01.560Z,99138.59
2023-04-11T13:09:34.430Z,99171.06
2023-04-11T13:12:04.132Z,99155.13
2023-04-11T13:14:31.204Z,99159.84
2023-04-11T13:16:58.067Z,99165.06
2023-04-11T13:19:25.078Z,99162.59
2023-04-11T13:21:51.956Z,99171.75
2023-04-11T13:24:18.835Z,99159.91
2023-04-11T13:26:45.989Z,99171.56
2023-04-11T13:29:12.968Z,99163.28
2023-04-11T13:31:40.024Z,99165.69
2023-04-11T13:34:06.984Z,99143.63
2023-04-11T13:36:33.889Z,99155.94
2023-04-11T13:39:00.720Z,99153.50
2023-04-11T13:41:27.556Z,99149.13
2023-04-11T13:43:54.588Z,99153.06
2023-04-11T13:46:21.946Z,99145.28
2023-04-11T13:48:49.042Z,99149.78
2023-04-11T13:51:16.099Z,99153.38
2023-04-11T13:53:42.930Z,99160.91
2023-04-11T13:56:10.697Z,99153.16
2023-04-11T13:58:38.556Z,99159.59
2023-04-11T14:01:06.862Z,99161.59
2023-04-11T14:03:34.074Z,99157.22
2023-04-11T14:06:01.683Z,99158.06
2023-04-11T14:08:29.102Z,99150.78
2023-04-11T14:10:56.168Z,99144.88
2023-04-11T14:13:23.944Z,99151.31
2023-04-11T14:16:04.854Z,99159.84
2023-04-11T14:18:34.665Z,99147.50
2023-04-11T14:21:01.961Z,99141.00
2023-04-11T14:23:29.387Z,99142.88
2023-04-11T14:25:56.868Z,99133.59
2023-04-11T14:28:26.562Z,99151.09
2023-04-11T14:30:53.927Z,99139.59
2023-04-11T14:33:21.202Z,99136.22
2023-04-11T14:35:48.230Z,99136.44
2023-04-11T14:38:16.036Z,99125.94
2023-04-11T14:40:43.102Z,99130.72
2023-04-11T14:43:10.088Z,99128.06
2023-04-11T14:45:37.158Z,99142.97
2023-04-11T14:48:04.170Z,99128.47
2023-04-11T14:50:31.481Z,99131.19
2023-04-11T14:52:58.498Z,99141.00
2023-04-11T14:55:25.466Z,99138.47
2023-04-11T14:57:53.575Z,99123.81
2023-04-11T15:00:22.046Z,99106.44
2023-04-11T15:02:51.066Z,99113.34
2023-04-11T15:05:19.677Z,99137.09
2023-04-11T15:07:48.221Z,99131.91
2023-04-11T15:10:16.764Z,99143.22
2023-04-11T15:12:43.823Z,99129.22
2023-04-11T15:15:11.354Z,99123.16
2023-04-11T15:17:48.536Z,99140.25
2023-04-11T15:20:16.101Z,99128.47
2023-04-11T15:22:44.113Z,99129.31
2023-04-11T15:25:12.237Z,99136.75
2023-04-11T15:27:39.340Z,99127.91
2023-04-11T15:30:06.831Z,99117.00
2023-04-11T15:32:34.046Z,99128.91
2023-04-11T15:35:01.211Z,99117.66
2023-04-11T15:37:28.251Z,99142.81
2023-04-11T15:39:55.582Z,99139.03
2023-04-11T15:42:22.573Z,99141.00
2023-04-11T15:44:49.449Z,99144.63
2023-04-11T15:47:16.842Z,99133.00
2023-04-11T15:49:43.880Z,99134.13
2023-04-11T15:52:11.264Z,99128.84
2023-04-11T15:54:38.171Z,99139.28
2023-04-11T15:57:05.117Z,99124.66
2023-04-11T15:59:31.986Z,99141.41
2023-04-11T16:01:58.917Z,99136.38
2023-04-11T16:04:27.400Z,99131.94
2023-04-11T16:06:54.551Z,99133.63
2023-04-11T16:09:21.450Z,99132.03
2023-04-11T16:11:48.490Z,99138.47
2023-04-11T16:14:15.699Z,99128.09
2023-04-11T16:16:44.780Z,99137.91
2023-04-11T16:19:11.714Z,99134.28
2023-04-11T16:21:38.982Z,99137.03
2023-04-11T16:24:06.066Z,99146.22
2023-04-11T16:26:32.883Z,99144.97
2023-04-11T16:28:59.781Z,99139.06
2023-04-11T16:31:27.355Z,99146.88
2023-04-11T16:33:55.395Z,99153.34
2023-04-11T16:36:22.545Z,99155.81
2023-04-11T16:38:50.064Z,99155.81
2023-04-11T16:41:17.532Z,99153.09
2023-04-11T16:43:44.745Z,99157.53
2023-04-11T16:46:13.332Z,99163.69
2023-04-11T16:48:43.523Z,99182.09
2023-04-11T16:51:11.528Z,99171.88
2023-04-11T16:53:38.922Z,99174.53
2023-04-11T16:56:06.176Z,99168.19
2023-04-11T16:58:33.828Z,99190.34
2023-04-11T17:01:01.534Z,99193.00
2023-04-11T17:03:28.933Z,99185.22
2023-04-11T17:05:56.202Z,99207.88
2023-04-11T17:08:23.214Z,99200.66
2023-04-11T17:10:50.132Z,99210.47
2023-04-11T17:13:18.827Z,99192.97
2023-04-11T17:15:46.517Z,99204.31
2023-04-11T17:18:15.073Z,99224.78
2023-04-11T17:20:43.642Z,99226.47
2023-04-11T17:23:10.820Z,99225.56
2023-04-11T17:25:37.720Z,99228.19
2023-04-11T17:28:04.740Z,99231.78
2023-04-11T17:30:32.591Z,99232.75
2023-04-11T17:32:59.877Z,99238.69
2023-04-11T17:35:28.060Z,99238.94
2023-04-11T17:37:57.899Z,99245.88
2023-04-11T17:40:24.924Z,99249.53
2023-04-11T17:42:51.821Z,99253.94
2023-04-11T17:45:19.396Z,99251.00
2023-04-11T17:47:48.850Z,99248.66
2023-04-11T17:50:16.564Z,99259.94
2023-04-11T17:52:44.564Z,99263.13
2023-04-11T17:55:13.104Z,99258.69
2023-04-11T17:57:40.413Z,99259.78
2023-04-11T18:00:28.364Z,99253.44
2023-04-11T18:02:57.933Z,99266.66
2023-04-11T18:05:26.696Z,99256.94
2023-04-11T18:07:55.109Z,99267.66
2023-04-11T18:10:23.126Z,99270.13
2023-04-11T18:12:51.653Z,99273.78
2023-04-11T18:15:18.798Z,99266.88
2023-04-11T18:17:46.287Z,99265.19
2023-04-11T18:20:14.372Z,99271.25
2023-04-11T18:22:42.070Z,99281.78
2023-04-11T18:25:09.224Z,99279.09
2023-04-11T18:27:37.376Z,99284.41
2023-04-11T18:30:05.366Z,99281.47
2023-04-11T18:32:37.291Z,99279.22
2023-04-11T18:35:11.885Z,99287.66
2023-04-11T18:37:40.729Z,99287.50
2023-04-11T18:40:14.355Z,99290.84
2023-04-11T18:42:42.611Z,99284.75
2023-04-11T18:45:13.994Z,99280.16
2023-04-11T18:47:42.130Z,99274.97
2023-04-11T18:50:09.446Z,99283.09
2023-04-11T18:52:36.560Z,99278.00
2023-04-11T18:55:03.774Z,99274.38
2023-04-11T18:57:34.520Z,99275.25
2023-04-11T19:00:13.272Z,99281.66
2023-04-11T19:02:41.576Z,99274.75
2023-04-11T19:05:13.609Z,99274.78
2023-04-11T19:07:41.898Z,99273.97
2023-04-11T19:10:10.124Z,99273.97
2023-04-11T19:12:37.377Z,99267.13
2023-04-11T19:15:08.236Z,99270.44
2023-04-11T19:17:36.682Z,99266.13
2023-04-11T19:20:07.334Z,99259.06
2023-04-11T19:22:36.044Z,99265.13
2023-04-11T19:25:03.029Z,99266.66
2023-04-11T19:27:29.973Z,99257.88
2023-04-11T19:29:57.243Z,99265.00
2023-04-11T19:32:24.304Z,99270.13
2023-04-11T19:34:51.505Z,99264.94
2023-04-11T19:37:19.614Z,99272.56
2023-04-11T19:39:46.586Z,99265.63
2023-04-11T19:42:13.548Z,99270.88
2023-04-11T19:44:40.550Z,99262.00
2023-04-11T19:47:07.546Z,99264.72
2023-04-11T19:49:34.610Z,99257.47
2023-04-11T19:52:01.512Z,99251.31
2023-04-11T19:54:28.451Z,99257.56
2023-04-11T19:56:55.425Z,99255.63
2023-04-11T19:59:22.350Z,99256.41
2023-04-11T20:01:49.241Z,99253.81
2023-04-11T20:04:17.700Z,99248.19
2023-04-11T20:06:44.711Z,99243.16
2023-04-11T20:09:11.945Z,99250.25
2023-04-11T20:11:39.231Z,99239.91
2023-04-11T20:14:07.272Z,99246.03
2023-04-11T20:16:34.771Z,99252.09
2023-04-11T20:19:02.309Z,99251.22
2023-04-11T20:21:29.241Z,99243.59
2023-04-11T20:23:56.327Z,99257.97
2023-04-11T20:26:23.640Z,99254.47
2023-04-11T20:28:50.601Z,99251.81
2023-04-11T20:31:17.571Z,99253.44
2023-04-11T20:33:45.494Z,99249.06
2023-04-11T20:36:12.723Z,99257.88
2023-04-11T20:38:39.664Z,99250.00
2023-04-11T20:41:08.861Z,99249.06
2023-04-11T20:43:41.869Z,99245.22
2023-04-11T20:46:08.874Z,99258.25
2023-04-11T20:48:36.054Z,99247.06
2023-04-11T20:51:02.940Z,99248.56
2023-04-11T20:53:29.830Z,99250.50
2023-04-11T20:55:56.836Z,99249.53
2023-04-11T20:58:23.982Z,99250.91
2023-04-11T21:00:51.024Z,99256.78
2023-04-11T21:03:17.942Z,99245.59
2023-04-11T21:05:46.750Z,99245.78
2023-04-11T21:08:14.134Z,99236.97
2023-04-11T21:10:41.196Z,99237.91
2023-04-11T21:13:08.328Z,99229.50
2023-04-11T21:15:35.264Z,99236.75
2023-04-11T21:18:02.489Z,99232.13
2023-04-11T21:20:29.839Z,99229.03
2023-04-11T21:22:56.807Z,99230.94
2023-04-11T21:25:24.232Z,99232.56
2023-04-11T21:27:51.393Z,99225.81
2023-04-11T21:30:18.367Z,99239.00
2023-04-11T21:32:45.627Z,99248.16
2023-04-11T21:35:12.577Z,99249.19
2023-04-11T21:37:39.571Z,99245.47
2023-04-11T21:40:06.804Z,99246.69
2023-04-11T21:42:33.778Z,99248.56
2023-04-11T21:45:00.796Z,99246.06
2023-04-11T21:47:27.832Z,99256.44
2023-04-11T21:49:54.893Z,99249.34
2023-04-11T21:52:21.779Z,99253.44
2023-04-11T21:54:48.658Z,99254.81
2023-04-11T21:57:15.620Z,99252.50
2023-04-11T21:59:42.490Z,99257.94
2023-04-11T22:02:09.522Z,99260.75
2023-04-11T22:04:47.529Z,99256.44
2023-04-11T22:07:26.634Z,99259.19
2023-04-11T22:09:59.791Z,99256.47
2023-04-11T22:12:29.692Z,99245.63
2023-04-11T22:14:57.353Z,99249.41
2023-04-11T22:17:24.310Z,99246.97
2023-04-11T22:19:51.202Z,99247.75
2023-04-11T22:22:18.860Z,99241.38
2023-04-11T22:24:48.934Z,99255.97
2023-04-11T22:27:18.412Z,99252.56
2023-04-11T22:29:45.706Z,99242.41
2023-04-11T22:32:12.700Z,99245.94
2023-04-11T22:34:41.115Z,99244.97
2023-04-11T22:37:07.992Z,99245.88
2023-04-11T22:39:34.958Z,99238.84
2023-04-11T22:42:01.911Z,99243.31
2023-04-11T22:44:28.798Z,99247.53
2023-04-11T22:47:00.729Z,99248.59
2023-04-11T22:49:27.908Z,99246.72
2023-04-11T22:51:59.463Z,99243.41
2023-04-11T22:54:27.455Z,99239.97
2023-04-11T22:56:57.751Z,99240.47
2023-04-11T22:59:25.044Z,99243.16
2023-04-11T23:01:52.731Z,99243.28
2023-04-11T23:04:20.801Z,99241.59
2023-04-11T23:06:51.492Z,99230.06
2023-04-11T23:09:18.508Z,99233.56
2023-04-11T23:11:46.003Z,99226.72
2023-04-11T23:14:14.543Z,99237.91
2023-04-11T23:16:41.873Z,99238.81
2023-04-11T23:19:09.263Z,99235.38
2023-04-11T23:21:37.298Z,99234.41
2023-04-11T23:24:05.375Z,99236.00
2023-04-11T23:26:32.436Z,99240.63
2023-04-11T23:29:00.411Z,99231.50
2023-04-11T23:31:27.514Z,99231.25
2023-04-11T23:33:54.816Z,99225.69
2023-04-11T23:36:22.093Z,99229.03
2023-04-11T23:38:48.982Z,99226.09
2023-04-11T23:41:15.918Z,99226.06
2023-04-11T23:43:42.915Z,99221.16
2023-04-11T23:46:10.084Z,99228.94
2023-04-11T23:48:37.200Z,99230.84
2023-04-11T23:51:04.187Z,99226.41
2023-04-11T23:53:31.833Z,99222.88
2023-04-11T23:55:58.841Z,99224.72
2023-04-11T23:58:25.771Z,99228.41
